createdAt,value
2023-01-26T00:01:56.184Z,15.82
2023-01-26T00:26:54.612Z,12.80
2023-01-26T00:29:24.439Z,14.85
2023-01-26T00:48:29.358Z,15.07
2023-01-26T00:50:57.448Z,14.38
2023-01-26T01:56:23.087Z,13.38
2023-01-26T02:17:46.051Z,12.75
2023-01-26T02:20:22.699Z,15.70
2023-01-26T02:22:56.436Z,13.40
2023-01-26T02:25:40.787Z,12.48
2023-01-26T02:28:09.190Z,13.18
2023-01-26T02:30:41.555Z,12.90
2023-01-26T02:33:15.016Z,14.65
2023-01-26T02:35:42.394Z,16.35
2023-01-26T03:56:21.943Z,13.50
2023-01-26T03:59:19.240Z,13.55
2023-01-26T04:10:18.470Z,13.88
2023-01-26T04:12:56.644Z,12.57
2023-01-26T04:15:26.743Z,12.93
2023-01-26T04:18:02.361Z,11.52
2023-01-26T04:20:30.166Z,14.10
2023-01-26T04:22:59.983Z,14.68
2023-01-26T04:25:27.822Z,13.55
2023-01-26T04:30:37.204Z,12.93
2023-01-26T04:33:07.833Z,12.95
2023-01-26T04:35:34.988Z,13.85
2023-01-26T04:38:01.822Z,11.68
2023-01-26T04:40:32.362Z,11.65
2023-01-26T04:43:06.128Z,12.57
2023-01-26T04:45:34.252Z,13.20
2023-01-26T04:56:49.597Z,10.35
2023-01-26T04:59:33.428Z,8.32
2023-01-26T05:02:10.391Z,8.95
2023-01-26T05:04:38.035Z,12.13
2023-01-26T05:07:17.452Z,10.52
2023-01-26T05:10:03.778Z,8.30
2023-01-26T06:24:25.289Z,7.82
2023-01-26T06:26:52.014Z,8.45
2023-01-26T06:29:18.679Z,11.57
2023-01-26T06:31:45.497Z,7.90
2023-01-26T06:34:12.161Z,9.38
2023-01-26T06:36:38.901Z,11.63
2023-01-26T06:39:05.644Z,10.45
2023-01-26T06:41:33.688Z,8.95
2023-01-26T06:44:00.381Z,9.20
2023-01-26T06:46:27.117Z,9.30
2023-01-26T06:48:53.886Z,10.55
2023-01-26T06:51:52.254Z,9.80
2023-01-26T06:54:19.033Z,11.48
2023-01-26T06:56:47.199Z,10.40
2023-01-26T06:59:13.922Z,10.80
2023-01-26T07:01:44.418Z,10.20
2023-01-26T07:04:11.295Z,9.40
2023-01-26T07:06:38.043Z,10.60
2023-01-26T07:09:05.060Z,10.10
2023-01-26T07:11:31.738Z,8.07
2023-01-26T07:13:59.850Z,9.10
2023-01-26T07:16:27.003Z,10.07
2023-01-26T07:18:57.105Z,9.80
2023-01-26T07:21:23.772Z,11.55
2023-01-26T07:23:51.011Z,9.27
2023-01-26T07:26:17.827Z,9.73
2023-01-26T07:28:44.555Z,10.05
2023-01-26T07:31:13.045Z,7.75
2023-01-26T07:33:40.102Z,9.00
2023-01-26T07:36:06.987Z,8.68
2023-01-26T07:38:34.251Z,8.52
2023-01-26T07:41:05.621Z,7.82
2023-01-26T07:43:33.384Z,9.75
2023-01-26T07:46:00.031Z,9.02
2023-01-26T07:48:28.283Z,8.05
2023-01-26T07:50:54.948Z,8.52
2023-01-26T07:53:21.616Z,7.57
2023-01-26T07:55:48.820Z,7.95
2023-01-26T08:00:56.390Z,7.38
2023-01-26T08:03:24.511Z,13.98
2023-01-26T08:05:54.167Z,8.77
2023-01-26T08:08:21.114Z,8.20
2023-01-26T08:10:47.785Z,8.35
2023-01-26T08:13:17.085Z,10.07
2023-01-26T08:15:43.891Z,8.27
2023-01-26T08:18:11.376Z,7.13
2023-01-26T08:20:38.086Z,8.15
2023-01-26T08:23:06.157Z,8.88
2023-01-26T08:25:32.852Z,7.07
2023-01-26T08:27:59.622Z,7.50
2023-01-26T08:30:26.347Z,7.95
2023-01-26T08:32:53.090Z,7.50
2023-01-26T08:35:19.776Z,8.40
2023-01-26T08:37:49.517Z,8.35
2023-01-26T08:42:44.367Z,7.85
2023-01-26T08:45:11.634Z,7.80
2023-01-26T08:47:38.502Z,6.72
2023-01-26T08:50:05.903Z,8.55
2023-01-26T08:52:32.687Z,10.55
2023-01-26T08:54:59.406Z,7.03
2023-01-26T08:57:27.548Z,8.07
2023-01-26T08:59:54.238Z,7.30
2023-01-26T09:02:21.052Z,8.75
2023-01-26T09:04:47.865Z,7.10
2023-01-26T09:07:15.110Z,8.90
2023-01-26T09:09:41.738Z,8.05
2023-01-26T09:12:08.553Z,9.50
2023-01-26T09:14:36.610Z,7.68
2023-01-26T09:17:03.373Z,8.40
2023-01-26T09:19:31.151Z,7.95
2023-01-26T09:21:57.929Z,10.18
2023-01-26T09:24:25.020Z,8.00
2023-01-26T09:26:54.383Z,8.82
2023-01-26T09:29:21.173Z,8.70
2023-01-26T09:31:49.270Z,8.32
2023-01-26T09:34:16.073Z,8.35
2023-01-26T09:36:42.749Z,7.30
2023-01-26T09:39:09.397Z,7.88
2023-01-26T09:41:49.520Z,7.40
2023-01-26T09:44:19.698Z,8.48
2023-01-26T09:47:00.003Z,7.18
2023-01-26T09:49:32.063Z,7.18
2023-01-26T09:52:03.705Z,9.30
2023-01-26T09:54:35.291Z,7.32
2023-01-26T09:57:10.457Z,7.88
2023-01-26T09:59:42.409Z,8.85
2023-01-26T10:02:23.400Z,7.85
2023-01-26T10:04:56.244Z,7.28
2023-01-26T10:07:22.988Z,7.68
2023-01-26T10:09:51.820Z,8.70
2023-01-26T10:12:22.767Z,7.87
2023-01-26T10:14:52.746Z,19.88
2023-01-26T10:17:28.044Z,9.13
2023-01-26T10:19:59.786Z,8.57
2023-01-26T10:22:34.058Z,10.98
2023-01-26T10:25:01.066Z,8.77
2023-01-26T10:27:28.010Z,9.25
2023-01-26T10:29:54.781Z,10.18
2023-01-26T10:32:23.231Z,8.27
2023-01-26T10:34:51.392Z,8.00
2023-01-26T10:37:22.443Z,10.10
2023-01-26T10:40:00.817Z,8.20
2023-01-26T10:42:29.396Z,9.25
2023-01-26T10:44:57.551Z,10.63
2023-01-26T10:47:26.748Z,8.52
2023-01-26T10:50:13.145Z,7.95
2023-01-26T10:52:57.524Z,9.20
2023-01-26T10:55:24.295Z,8.38
2023-01-26T10:57:55.640Z,9.15
2023-01-26T11:00:25.201Z,7.80
2023-01-26T11:02:56.065Z,7.05
2023-01-26T11:05:24.610Z,8.07
2023-01-26T11:07:53.796Z,8.45
2023-01-26T11:10:25.327Z,7.60
2023-01-26T11:13:06.513Z,9.38
2023-01-26T11:15:36.877Z,7.00
2023-01-26T11:18:15.695Z,7.40
2023-01-26T11:20:50.801Z,8.20
2023-01-26T11:23:28.132Z,6.18
2023-01-26T11:26:25.964Z,7.03
2023-01-26T11:29:07.677Z,6.22
2023-01-26T11:31:49.055Z,8.13
2023-01-26T11:34:27.881Z,7.80
2023-01-26T11:37:16.348Z,6.00
2023-01-26T11:39:56.742Z,6.82
2023-01-26T11:42:35.506Z,7.13
2023-01-26T11:45:17.417Z,6.83
2023-01-26T11:47:59.126Z,8.35
2023-01-26T11:50:35.031Z,6.22
2023-01-26T11:53:30.930Z,6.65
2023-01-26T20:16:25.515Z,9.93
2023-01-26T20:18:52.148Z,8.88
2023-01-26T20:21:18.890Z,12.38
2023-01-26T20:23:54.008Z,13.13
2023-01-26T20:48:55.189Z,13.20
2023-01-26T20:51:26.270Z,10.95
2023-01-26T22:36:19.808Z,12.45
2023-01-26T22:38:47.127Z,9.48
2023-01-26T22:41:16.445Z,10.38
2023-01-26T22:43:43.233Z,10.45
2023-01-26T22:46:11.243Z,9.70
2023-01-26T22:48:38.283Z,13.25
2023-01-26T22:51:09.406Z,8.60
2023-01-26T22:53:39.267Z,10.18
2023-01-26T22:56:07.628Z,8.82
2023-01-26T22:58:41.836Z,10.02
2023-01-26T23:01:16.447Z,9.32
2023-01-26T23:03:44.007Z,9.63
2023-01-26T23:06:13.233Z,12.85
2023-01-26T23:08:43.561Z,8.95
2023-01-26T23:11:13.846Z,10.00
2023-01-26T23:13:42.438Z,9.25
2023-01-26T23:16:11.332Z,9.48
2023-01-26T23:18:38.557Z,8.95
2023-01-26T23:21:06.753Z,8.77
2023-01-26T23:23:41.433Z,9.55
2023-01-26T23:26:09.092Z,9.98
2023-01-26T23:28:38.715Z,9.95
2023-01-26T23:33:33.713Z,10.18
2023-01-26T23:36:01.016Z,9.48
2023-01-26T23:38:29.313Z,8.77
2023-01-26T23:40:58.126Z,11.05
2023-01-26T23:43:24.804Z,9.57
2023-01-26T23:45:51.976Z,9.32
2023-01-26T23:48:19.328Z,8.85
2023-01-26T23:50:46.272Z,9.40
2023-01-26T23:53:12.950Z,10.50
2023-01-26T23:55:40.589Z,8.75
2023-01-26T23:58:09.389Z,9.73
